Happy Valentine's Day! 

Flight Track Log - Related Links

Times and Time Zones

All times are in EDT time to prevent confusion due to time zone crossing. See the N900TG flight status page for this flight to view local times or setup timezone preferences in your user account.


Time Position Orientation Groundspeed Altitude Reporting Facility
EDT Latitude Longitude Course Direction KTS MPH feet Rate Location/Type
Thu 08:42:25 PM 43.5797 -116.2725 294° West 178 205 5,000  Level Seattle Center
Thu 08:43:26 PM 43.6069 -116.3556 294° West 224 258 8,200 3,492 Climbing Seattle Center
Thu 08:44:27 PM 43.6419 -116.4767 292° West 252 290 12,100 3,415 Climbing Seattle Center
Thu 08:45:29 PM 43.6756 -116.5950 291° West 290 334 15,200 3,073 Climbing Seattle Center
Thu 08:46:30 PM 43.7069 -116.7247 289° West 325 374 18,400 3,246 Climbing Seattle Center
Thu 08:47:31 PM 43.7144 -116.8633 274° West 356 410 21,800 2,891 Climbing Seattle Center
Thu 08:48:47 PM 43.7200 -117.0283 273° West 358 412 25,000 2,409 Climbing Salt Lake Center
Thu 08:49:48 PM 43.7469 -117.1642 285° West 369 425 27,300 1,756 Climbing Salt Lake Center
Thu 08:50:50 PM 43.7894 -117.3039 293° West 396 456 28,600 1,790 Climbing Salt Lake Center
Thu 08:51:52 PM 43.8478 -117.4756 295° West 412 474 31,000 1,887 Climbing Salt Lake Center
Thu 08:52:54 PM 43.9122 -117.6106 304° West 421 484 32,500 1,258 Climbing Salt Lake Center
Thu 08:53:56 PM 43.9764 -117.7533 302° West 438 504 33,600 1,065 Climbing Salt Lake Center
Thu 08:54:58 PM 44.0264 -117.9122 294° West 450 518 34,700 1,073 Climbing Salt Lake Center
Thu 08:55:59 PM 44.0731 -118.0781 291° West 461 531 35,800 634 Climbing Salt Lake Center
Thu 08:57:01 PM 44.1178 -118.2458 290° West 462 532 36,000 97 Climbing Salt Lake Center
Thu 08:58:03 PM 44.1672 -118.4261 291° West 484 557 36,000  Level Salt Lake Center
Thu 08:58:44 PM 44.2058 -118.5683 291° West 492 566 36,000  Level Seattle Center
Thu 08:59:45 PM 44.2519 -118.7439 290° West 483 556 36,000 443 Level Seattle Center
Thu 09:00:46 PM 44.2997 -118.9186 291° West 482 555 36,900 934 Climbing Seattle Center
Thu 09:01:47 PM 44.3472 -119.0892 291° West 473 544 37,900 541 Climbing Seattle Center
Thu 09:02:48 PM 44.3931 -119.2631 290° West 477 549 38,000 49 Climbing Seattle Center
Thu 09:03:50 PM 44.4328 -119.4425 287° West 481 554 38,000  Level Seattle Center
Thu 09:04:51 PM 44.4667 -119.6253 285° West 484 557 38,000  Level Seattle Center
Thu 09:05:52 PM 44.4994 -119.8094 284° West 486 559 38,000  Level Seattle Center
Thu 09:06:53 PM 44.5319 -119.9944 284° West 485 558 38,000 -49 Level Seattle Center
Thu 09:07:54 PM 44.5650 -120.1783 284° West 484 557 37,900 -1,082 Descending Seattle Center
Thu 09:08:55 PM 44.5967 -120.3619 284° West 482 555 35,800 -2,508 Descending Seattle Center
Thu 09:09:56 PM 44.6333 -120.5642 284° West 482 555 32,800 -2,634 Descending Seattle Center
Thu 09:10:58 PM 44.6606 -120.7217 284° West 467 537 30,400 -2,488 Descending Seattle Center
Thu 09:11:59 PM 44.6900 -120.9006 283° West 468 539 27,700 -2,951 Descending Seattle Center
Thu 09:13:00 PM 44.7256 -121.1178 283° West 473 544 24,400 -2,951 Descending Seattle Center
Thu 09:14:01 PM 44.7556 -121.2967 283° West 473 544 21,700 -2,361 Descending Seattle Center
Thu 09:15:02 PM 44.7844 -121.4694 283° West 461 531 19,600 -2,361 Descending Seattle Center
Thu 09:16:03 PM 44.8108 -121.6353 283° West 443 510 16,900 -2,459 Descending Seattle Center
Thu 09:17:04 PM 44.8367 -121.7933 283° West 422 486 14,600 -2,366 Descending Seattle Center
Thu 09:17:14 PM 44.8417 -121.8342 280° West 406 467 14,100 -2,057 Descending Seattle Center
Thu 09:17:39 PM 44.8517 -121.8911 284° West 393 452 13,400 -1,647 Descending Seattle Center
Thu 09:18:05 PM 44.8608 -121.9389 285° West 403 464 12,700 -2,000 Descending Seattle Center
Thu 09:18:39 PM 44.8731 -122.0350 280° West 366 421 11,400 -1,869 Descending Seattle Center
Thu 09:19:06 PM 44.8847 -122.0892 287° West 369 425 10,800 -1,082 Descending Seattle Center
Thu 09:19:40 PM 44.9072 -122.1675 292° West 353 406 10,300 -774 Descending Seattle Center
Thu 09:20:08 PM 44.9297 -122.2089 308° West 350 403 10,000 -896 Descending Seattle Center
Thu 09:20:47 PM 44.9697 -122.2794 309° West 291 335 9,300 -1,180 Descending Seattle Center
Thu 09:21:09 PM 44.9842 -122.3011 313° West 320 368 8,800 -1,745 Descending Seattle Center
Thu 09:21:42 PM 45.0136 -122.3561 307° West 276 318 7,700 -1,672 Descending Seattle Center
Thu 09:22:10 PM 45.0311 -122.3842 311° West 288 331 7,100 -1,075 Descending Seattle Center
Thu 09:22:49 PM 45.0525 -122.4503 295° West 248 285 6,500 -885 Descending Seattle Center
Thu 09:23:11 PM 45.0561 -122.4717 283° West 253 291 6,200 -1,343 Descending Seattle Center
Thu 09:23:56 PM 45.0683 -122.5600 281° West 275 316 5,000 -1,475 Descending Seattle Center
Thu 09:24:12 PM 45.0731 -122.5769 292° West 272 313 4,700 -1,180 Descending Seattle Center
Thu 09:24:57 PM 45.0856 -122.6661 281° West 257 296 3,800 -1,082 Descending Seattle Center
Thu 09:25:13 PM 45.0883 -122.6733 299° West 261 300 3,600 -545 Descending Seattle Center
Thu 09:26:14 PM 45.1161 -122.7714 292° West 250 288 3,100 -492 Descending Seattle Center
Thu 09:28:00 PM 45.2333 -122.7667 310° West  Level FlightAware Approximate
Thu 09:35:00 PM 45.2471 -122.7701 310° West  Level Estimated

Login

Don't have an account? Register now (free) for customized features, flight alerts, and more!